Time;durP1;ratioP1;P1;durP2;ratioP2;P2;SDS_P1;SDS_P2;PMS_P1;PMS_P2;Temp;Humidity;BMP_temperature;BMP_pressure;BME280_temperature;BME280_humidity;BME280_pressure;Samples;Min_cycle;Max_cycle;Signal;HPM_P1;HPM_P2
2021/10/10 00:00:00;;;;;;;22.55;12.65;;;9.20;95.80;;;6.65;100.00;101728.75;5008114;28;20057;-86
2021/10/10 00:02:27;;;;;;;19.95;13.32;;;9.20;95.90;;;6.69;100.00;101729.34;5009528;28;20045;-87
2021/10/10 00:04:54;;;;;;;21.83;12.60;;;9.20;95.90;;;6.61;100.00;101729.16;5009856;28;20084;-87
2021/10/10 00:07:23;;;;;;;21.10;13.05;;;9.10;96.00;;;6.63;100.00;101721.75;5032789;28;20130;-87
2021/10/10 00:09:50;;;;;;;20.42;12.27;;;9.20;95.90;;;6.65;100.00;101728.75;5049325;28;20131;-87
2021/10/10 00:12:22;;;;;;;17.63;11.23;;;9.10;95.90;;;6.68;100.00;101724.06;5028137;28;20107;-87
2021/10/10 00:14:49;;;;;;;21.08;12.25;;;9.10;96.00;;;6.70;100.00;101722.97;5025235;28;20501;-87
2021/10/10 00:17:16;;;;;;;17.63;10.73;;;9.10;96.00;;;6.72;100.00;101714.69;5009340;28;20042;-87
2021/10/10 00:19:44;;;;;;;19.88;11.18;;;9.10;96.10;;;6.69;100.00;101718.53;5009191;28;20049;-87
2021/10/10 00:22:11;;;;;;;18.98;10.65;;;9.00;96.00;;;6.68;100.00;101724.06;5009065;28;20088;-86
2021/10/10 00:24:38;;;;;;;20.40;11.88;;;9.00;96.00;;;6.57;100.00;101720.44;5009188;28;20046;-87
2021/10/10 00:27:05;;;;;;;18.35;10.45;;;9.00;96.00;;;6.58;100.00;101722.13;5013678;28;20105;-86
2021/10/10 00:29:34;;;;;;;22.90;11.25;;;9.00;96.10;;;6.60;100.00;101714.75;5028616;28;20045;-87
2021/10/10 00:32:02;;;;;;;20.40;11.43;;;9.00;95.90;;;6.55;100.00;101710.69;5028660;28;20725;-86
2021/10/10 00:34:30;;;;;;;20.05;10.40;;;9.00;96.00;;;6.46;100.00;101715.06;5028849;28;20096;-87
2021/10/10 00:36:57;;;;;;;16.58;9.77;;;9.00;96.10;;;6.46;100.00;101721.31;5027374;28;20051;-87
2021/10/10 00:39:25;;;;;;;15.15;9.57;;;8.90;95.90;;;6.48;100.00;101715.78;5028470;28;20087;-87
2021/10/10 00:41:52;;;;;;;16.35;9.00;;;8.90;95.90;;;6.48;100.00;101721.19;5028665;28;20241;-87
2021/10/10 00:44:19;;;;;;;16.17;8.52;;;9.00;96.00;;;6.50;100.00;101723.78;5028746;28;20073;-87
2021/10/10 00:46:48;;;;;;;15.80;9.32;;;8.80;95.80;;;6.50;100.00;101719.22;5028779;28;20064;-87
2021/10/10 00:49:15;;;;;;;15.38;8.63;;;8.80;96.00;;;6.48;100.00;101723.91;5028711;28;20144;-87
2021/10/10 00:51:45;;;;;;;14.93;8.35;;;8.80;96.10;;;6.47;100.00;101719.47;5028562;28;20500;-87
2021/10/10 00:54:14;;;;;;;15.15;8.13;;;8.80;96.10;;;6.44;100.00;101722.44;5028598;28;20041;-87
2021/10/10 00:56:44;;;;;;;18.27;8.25;;;8.80;96.20;;;6.48;100.00;101720.34;5026995;28;20053;-87
2021/10/10 00:59:14;;;;;;;13.98;8.63;;;8.80;96.20;;;6.47;100.00;101724.88;5014306;28;20049;-87
2021/10/10 01:01:42;;;;;;;14.87;8.17;;;8.80;96.40;;;6.49;100.00;101720.19;5008673;28;20506;-87
2021/10/10 01:04:11;;;;;;;13.20;7.70;;;8.80;96.40;;;6.49;100.00;101725.59;5023748;28;20053;-87
2021/10/10 01:06:39;;;;;;;16.20;8.00;;;8.80;96.50;;;6.45;100.00;101722.31;5026392;28;20447;-87
2021/10/10 01:09:06;;;;;;;13.75;8.27;;;8.80;96.50;;;6.42;100.00;101717.16;5048116;28;20786;-87
2021/10/10 01:11:35;;;;;;;17.80;8.20;;;8.80;96.40;;;6.42;100.00;101727.97;5048186;28;20090;-87
2021/10/10 01:14:03;;;;;;;17.00;8.20;;;8.80;96.50;;;6.42;100.00;101721.72;5026548;28;20050;-86
2021/10/10 01:16:30;;;;;;;16.67;7.90;;;8.80;96.50;;;6.41;100.00;101725.38;5008757;28;20057;-87
2021/10/10 01:18:58;;;;;;;14.80;8.02;;;8.80;96.50;;;6.38;100.00;101721.09;5008324;28;20077;-87
2021/10/10 01:21:27;;;;;;;17.02;8.07;;;8.70;96.60;;;6.36;100.00;101722.19;5008319;28;20125;-87
2021/10/10 01:23:55;;;;;;;16.45;9.23;;;8.80;96.60;;;6.28;100.00;101720.13;5008426;28;20346;-87
2021/10/10 01:26:22;;;;;;;15.00;8.90;;;8.70;96.50;;;6.27;100.00;101715.72;5008599;28;20045;-87
2021/10/10 01:28:49;;;;;;;20.23;8.43;;;8.70;96.60;;;6.35;100.00;101717.78;5026879;28;20043;-87
2021/10/10 01:31:17;;;;;;;16.48;8.13;;;8.70;96.60;;;6.32;100.00;101715.34;5027926;28;20111;-87
2021/10/10 01:33:45;;;;;;;14.30;8.75;;;8.60;96.50;;;6.24;100.00;101713.25;5028038;28;20123;-87
2021/10/10 01:36:14;;;;;;;19.48;9.23;;;8.70;96.70;;;6.22;100.00;101710.69;5028036;28;20529;-87
2021/10/10 01:38:44;;;;;;;18.38;9.73;;;8.70;96.50;;;6.16;100.00;101711.19;5027869;28;20073;-87
2021/10/10 01:41:11;;;;;;;16.85;8.23;;;8.60;96.30;;;6.14;100.00;101717.72;5027406;28;20140;-87
2021/10/10 01:43:39;;;;;;;22.15;9.38;;;8.60;96.40;;;6.15;100.00;101704.09;5028156;28;20049;-87
2021/10/10 01:46:07;;;;;;;15.48;9.60;;;8.60;96.30;;;6.12;100.00;101712.44;5022562;28;20138;-86
2021/10/10 01:48:35;;;;;;;14.63;8.30;;;8.60;96.20;;;6.09;100.00;101715.38;5008072;28;20080;-87
2021/10/10 01:51:03;;;;;;;22.13;9.20;;;8.50;96.10;;;5.95;100.00;101704.81;5008146;28;20126;-88
2021/10/10 01:53:31;;;;;;;14.32;9.07;;;8.50;96.10;;;5.90;100.00;101710.59;5008336;28;20123;-87
2021/10/10 01:56:00;;;;;;;14.68;9.07;;;8.50;96.30;;;5.90;100.00;101709.75;5008280;28;20065;-87
2021/10/10 01:58:28;;;;;;;18.50;9.32;;;8.50;96.20;;;5.76;100.00;101714.41;5022990;28;20046;-87
2021/10/10 02:00:57;;;;;;;15.27;8.45;;;8.40;96.00;;;5.75;100.00;101718.13;5006597;28;20060;-86
2021/10/10 02:03:25;;;;;;;15.05;9.35;;;8.40;96.00;;;5.76;100.00;101713.56;5008310;28;20054;-87
2021/10/10 02:05:53;;;;;;;17.00;8.85;;;8.40;95.90;;;5.78;100.00;101707.03;5006596;28;20141;-87
2021/10/10 02:08:21;;;;;;;14.90;8.20;;;8.30;95.90;;;5.76;100.00;101711.72;5011809;28;20502;-87
2021/10/10 02:10:48;;;;;;;13.60;7.97;;;8.30;95.80;;;5.75;100.00;101718.13;5008210;28;20050;-86
2021/10/10 02:13:16;;;;;;;16.65;8.63;;;8.30;95.80;;;5.75;100.00;101710.00;5006691;28;20052;-87
2021/10/10 02:15:44;;;;;;;17.60;8.63;;;8.20;95.70;;;5.72;100.00;101712.09;5007853;28;20108;-87
2021/10/10 02:18:11;;;;;;;13.52;8.30;;;8.20;95.70;;;5.67;100.00;101707.94;5010441;28;20126;-87
2021/10/10 02:20:39;;;;;;;18.48;8.65;;;8.20;95.80;;;5.69;100.00;101702.38;5027523;28;20061;-87
2021/10/10 02:23:06;;;;;;;16.20;8.57;;;8.10;95.80;;;5.67;100.00;101701.66;5026084;28;20424;-87
2021/10/10 02:25:33;;;;;;;17.55;9.20;;;8.20;95.80;;;5.66;100.00;101697.25;5011831;28;20635;-87
2021/10/10 02:28:00;;;;;;;16.80;9.77;;;8.10;95.90;;;5.69;100.00;101699.69;5023282;28;20071;-86
2021/10/10 02:30:29;;;;;;;15.65;8.75;;;8.10;95.90;;;5.59;100.00;101696.88;5031234;28;20073;-87
2021/10/10 02:32:56;;;;;;;16.17;8.55;;;8.00;95.60;;;5.51;100.00;101696.63;5031355;28;20564;-87
2021/10/10 02:35:24;;;;;;;15.25;8.48;;;8.00;95.60;;;5.47;100.00;101698.72;5029975;28;20049;-87
2021/10/10 02:37:52;;;;;;;16.50;9.15;;;8.00;95.60;;;5.47;100.00;101696.00;5031076;28;20056;-87
2021/10/10 02:40:19;;;;;;;18.20;9.68;;;8.00;95.70;;;5.44;100.00;101693.53;5031196;28;20045;-87
2021/10/10 02:42:47;;;;;;;15.13;9.32;;;7.90;95.60;;;5.38;100.00;101694.03;5031193;28;20129;-87
2021/10/10 02:45:14;;;;;;;17.70;9.38;;;7.90;95.60;;;5.37;100.00;101689.63;5031159;28;20049;-86
2021/10/10 02:47:43;;;;;;;16.33;9.77;;;7.90;95.60;;;5.33;100.00;101696.25;5029362;28;20157;-87
2021/10/10 02:50:10;;;;;;;15.35;9.35;;;7.90;95.70;;;5.30;100.00;101691.09;5015573;28;20527;-88
2021/10/10 02:52:38;;;;;;;16.33;9.85;;;7.80;95.60;;;5.30;100.00;101685.69;5011185;28;20046;-87
2021/10/10 02:55:08;;;;;;;19.38;9.75;;;7.80;95.60;;;5.23;100.00;101690.69;5010989;28;20076;-87
2021/10/10 02:57:35;;;;;;;17.50;9.98;;;7.80;95.70;;;5.27;100.00;101685.94;5010774;28;20073;-87
2021/10/10 03:00:04;;;;;;;17.45;9.43;;;7.80;95.60;;;5.26;100.00;101684.22;5010916;28;20053;-87
2021/10/10 03:02:32;;;;;;;15.23;9.35;;;7.70;95.60;;;5.25;100.00;101693.28;5010761;28;20046;-87
2021/10/10 03:05:00;;;;;;;15.02;8.93;;;7.70;95.40;;;5.22;100.00;101690.84;5010436;28;20128;-87
2021/10/10 03:07:28;;;;;;;15.98;9.70;;;7.70;95.70;;;5.20;100.00;101684.72;5042298;28;20072;-87
2021/10/10 03:09:55;;;;;;;18.92;9.77;;;7.70;95.80;;;5.17;100.00;101685.78;5050532;28;20508;-87
2021/10/10 03:12:22;;;;;;;15.75;8.75;;;7.60;95.60;;;5.14;100.00;101683.34;5050492;28;20107;-87
2021/10/10 03:14:50;;;;;;;18.88;9.32;;;7.60;95.70;;;5.12;100.00;101682.59;5050549;28;20858;-87
2021/10/10 03:17:17;;;;;;;18.23;9.57;;;7.60;95.70;;;5.09;100.00;101682.84;5050605;28;20047;-87
2021/10/10 03:19:44;;;;;;;17.70;10.70;;;7.60;95.70;;;5.08;100.00;101675.72;5016695;28;20136;-88
2021/10/10 03:22:13;;;;;;;19.38;10.50;;;7.50;95.60;;;5.05;100.00;101682.22;5010354;28;20065;-87
2021/10/10 03:24:40;;;;;;;17.15;9.90;;;7.50;95.70;;;5.05;100.00;101681.38;5010846;28;20392;-87
2021/10/10 03:27:07;;;;;;;17.83;10.73;;;7.50;95.80;;;5.01;100.00;101675.34;5015257;28;20041;-87
2021/10/10 03:29:35;;;;;;;19.95;10.38;;;7.50;95.80;;;5.02;100.00;101676.22;5030240;28;20045;-86
2021/10/10 03:32:02;;;;;;;22.83;10.95;;;7.50;95.70;;;5.00;100.00;101670.94;5029857;28;20461;-86
2021/10/10 03:34:32;;;;;;;17.48;10.70;;;7.40;95.60;;;4.96;100.00;101671.31;5018895;28;20120;-87
2021/10/10 03:36:59;;;;;;;23.20;11.20;;;7.50;95.90;;;4.95;100.00;101670.44;5025064;28;20153;-87
2021/10/10 03:39:28;;;;;;;16.83;9.88;;;7.40;95.70;;;4.96;100.00;101671.31;5025015;28;20413;-87
2021/10/10 03:41:55;;;;;;;19.45;10.38;;;7.40;95.60;;;4.92;100.00;101669.81;5024426;28;20809;-87
2021/10/10 03:44:23;;;;;;;22.55;11.02;;;7.40;95.60;;;4.87;100.00;101664.78;5009940;28;20137;-87
2021/10/10 03:46:50;;;;;;;18.98;11.05;;;7.40;95.70;;;4.88;100.00;101663.81;5010048;28;20048;-87
2021/10/10 03:49:18;;;;;;;19.10;11.13;;;7.40;95.80;;;4.88;100.00;101666.50;5009505;28;20081;-87
2021/10/10 03:51:45;;;;;;;19.30;11.55;;;7.30;95.80;;;4.90;100.00;101659.16;5028161;28;20124;-86
2021/10/10 03:56:55;;;;;;;18.77;10.48;;;7.30;95.90;;;4.81;100.00;101659.84;5017797;28;20049;-87
2021/10/10 03:59:23;;;;;;;20.25;11.25;;;7.30;95.80;;;4.90;100.00;101656.44;5029426;28;20049;-87
2021/10/10 04:01:51;;;;;;;18.27;10.85;;;7.30;96.00;;;4.90;100.00;101651.91;5029432;28;20053;-86
2021/10/10 04:04:19;;;;;;;15.50;10.00;;;7.30;96.00;;;4.87;100.00;101638.69;5022673;28;20049;-87
2021/10/10 04:06:46;;;;;;;17.13;10.60;;;7.30;96.10;;;4.82;100.00;101642.72;5023073;28;20079;-88
2021/10/10 04:09:13;;;;;;;17.10;11.05;;;7.30;96.10;;;4.73;100.00;101649.66;5049175;28;20122;-87
2021/10/10 04:11:40;;;;;;;17.77;10.45;;;7.30;96.10;;;4.70;100.00;101656.16;5047752;28;20559;-87
2021/10/10 04:14:09;;;;;;;19.42;10.07;;;7.30;96.20;;;4.62;100.00;101653.19;5049322;28;20134;-87
2021/10/10 04:16:36;;;;;;;16.02;9.85;;;7.30;96.00;;;4.60;100.00;101647.03;5047754;28;20147;-87
2021/10/10 04:19:03;;;;;;;17.75;10.73;;;7.30;95.90;;;4.56;100.00;101642.88;5047411;28;20079;-87
2021/10/10 04:21:31;;;;;;;20.38;10.30;;;7.20;95.70;;;4.58;100.00;101648.16;5039777;28;20131;-87
2021/10/10 04:23:58;;;;;;;17.27;9.57;;;7.20;95.70;;;4.61;100.00;101654.19;5028138;28;20576;-87
2021/10/10 04:26:25;;;;;;;16.58;9.38;;;7.20;95.70;;;4.58;100.00;101640.06;5029341;28;20077;-87
2021/10/10 04:28:52;;;;;;;16.27;9.57;;;7.10;95.70;;;4.61;100.00;101650.63;5027710;28;20077;-87
2021/10/10 04:31:21;;;;;;;20.33;10.43;;;7.10;95.80;;;4.57;100.00;101644.59;5046481;22;20135;-84
2021/10/10 04:33:48;;;;;;;16.65;10.07;;;7.10;95.70;;;4.52;100.00;101645.94;5048832;28;20075;-84
2021/10/10 04:36:15;;;;;;;17.05;10.07;;;7.10;95.70;;;4.44;100.00;101643.81;5049154;28;20230;-84
2021/10/10 04:38:42;;;;;;;17.20;9.27;;;7.00;95.60;;;4.45;100.00;101650.91;5048829;28;20131;-84
2021/10/10 04:41:10;;;;;;;16.25;9.35;;;7.00;95.50;;;4.37;100.00;101648.81;5048874;28;20111;-84
2021/10/10 04:43:37;;;;;;;18.30;9.80;;;7.00;95.60;;;4.40;100.00;101645.00;5048796;28;20135;-85
2021/10/10 04:46:06;;;;;;;18.35;9.85;;;7.00;95.60;;;4.34;100.00;101645.47;5030701;28;20075;-84
2021/10/10 04:48:38;;;;;;;20.63;9.82;;;6.90;95.60;;;4.35;100.00;101642.69;5047526;28;20091;-84
2021/10/10 04:51:06;;;;;;;16.27;9.70;;;7.00;95.60;;;4.40;100.00;101645.88;5048730;28;20072;-85
2021/10/10 04:53:33;;;;;;;14.20;9.57;;;6.90;95.70;;;4.41;100.00;101633.28;5030459;28;20047;-84
2021/10/10 04:56:00;;;;;;;15.50;9.50;;;6.90;95.80;;;4.31;100.00;101639.34;5048478;28;20080;-84
2021/10/10 04:58:27;;;;;;;16.95;9.65;;;6.90;95.80;;;4.33;100.00;101635.69;5048279;28;20148;-84
2021/10/10 05:00:55;;;;;;;15.45;9.50;;;6.90;95.70;;;4.31;100.00;101639.34;5048566;28;20152;-84
2021/10/10 05:03:22;;;;;;;17.98;10.43;;;6.90;95.70;;;4.29;100.00;101640.44;5048460;28;20091;-84
2021/10/10 05:05:51;;;;;;;15.30;10.23;;;6.90;95.70;;;4.29;100.00;101641.31;5054409;28;20041;-84
2021/10/10 05:08:19;;;;;;;15.73;9.27;;;7.00;95.70;;;4.27;100.00;101643.25;5086149;28;20047;-84
2021/10/10 05:10:46;;;;;;;17.08;9.38;;;6.80;95.50;;;4.27;100.00;101647.78;5088576;28;20521;-84
2021/10/10 05:13:13;;;;;;;16.80;9.73;;;6.80;95.60;;;4.30;100.00;101651.13;5088620;28;20131;-84
2021/10/10 05:15:40;;;;;;;14.52;9.23;;;6.80;95.70;;;4.30;100.00;101648.44;5070512;28;20125;-85
2021/10/10 05:18:08;;;;;;;18.95;9.63;;;6.80;95.80;;;4.26;100.00;101649.59;5079557;28;20518;-85
2021/10/10 05:20:35;;;;;;;18.10;9.40;;;6.80;95.80;;;4.21;100.00;101659.91;5048354;28;20127;-84
2021/10/10 05:23:04;;;;;;;16.92;8.85;;;6.80;95.80;;;4.22;100.00;101645.44;5048674;28;20091;-85
2021/10/10 05:25:31;;;;;;;17.92;10.02;;;6.70;95.80;;;4.13;100.00;101651.50;5048115;28;20041;-84
2021/10/10 05:27:58;;;;;;;19.48;9.35;;;6.70;95.90;;;4.15;100.00;101651.41;5047968;28;20072;-85
2021/10/10 05:30:25;;;;;;;16.30;10.15;;;6.70;95.90;;;4.11;100.00;101654.34;5048098;28;20045;-84
2021/10/10 05:32:53;;;;;;;16.00;9.80;;;6.70;95.90;;;4.17;100.00;101653.03;5048126;28;20481;-84
2021/10/10 05:35:20;;;;;;;16.45;9.68;;;6.70;95.80;;;4.20;100.00;101650.06;5029934;28;20077;-84
2021/10/10 05:37:47;;;;;;;16.65;10.05;;;6.70;95.80;;;4.21;100.00;101659.91;5048014;28;20045;-84
2021/10/10 05:40:16;;;;;;;14.73;9.30;;;6.70;96.00;;;4.22;100.00;101661.59;5048126;28;20079;-84
2021/10/10 05:42:43;;;;;;;16.58;9.35;;;6.60;95.80;;;4.28;100.00;101660.28;5048216;28;20044;-84
2021/10/10 05:45:11;;;;;;;16.48;9.93;;;6.70;95.70;;;4.29;100.00;101665.56;5030134;28;20099;-84
2021/10/10 05:47:38;;;;;;;17.55;9.82;;;6.70;96.00;;;4.26;100.00;101660.38;5047836;28;20606;-84
2021/10/10 05:50:07;;;;;;;20.38;10.73;;;6.60;96.00;;;4.21;100.00;101657.19;5055664;28;20412;-84
2021/10/10 05:52:34;;;;;;;17.63;10.00;;;6.70;96.20;;;4.31;100.00;101650.13;5068051;28;20047;-83
2021/10/10 05:55:06;;;;;;;19.35;10.20;;;6.60;96.10;;;4.37;100.00;101658.75;5049991;28;20139;-84
2021/10/10 05:57:43;;;;;;;19.73;10.73;;;6.60;96.10;;;4.34;100.00;101653.56;5046884;28;20053;-84
2021/10/10 06:00:12;;;;;;;14.70;9.05;;;6.60;96.30;;;4.35;100.00;101653.47;5079659;28;20044;-84
2021/10/10 06:02:41;;;;;;;17.92;10.32;;;6.70;96.40;;;4.38;100.00;101660.44;5091983;28;20156;-84
2021/10/10 06:05:10;;;;;;;16.77;9.68;;;6.70;96.40;;;4.42;100.00;101657.41;5077560;28;20044;-85
2021/10/10 06:07:37;;;;;;;17.45;11.00;;;6.70;96.50;;;4.45;100.00;101653.63;5077869;28;20079;-85
2021/10/10 06:10:07;;;;;;;15.27;10.02;;;6.70;96.50;;;4.45;100.00;101664.41;5055336;28;20052;-85
2021/10/10 06:12:39;;;;;;;19.50;10.20;;;6.80;96.60;;;4.43;100.00;101660.97;5053694;28;20072;-85
2021/10/10 06:15:09;;;;;;;17.13;10.18;;;6.80;96.60;;;4.44;100.00;101658.16;5063841;28;20125;-85
2021/10/10 06:17:39;;;;;;;16.88;9.68;;;6.80;96.60;;;4.54;100.00;101661.00;5051533;28;20045;-84
2021/10/10 06:20:09;;;;;;;18.58;9.73;;;6.80;96.70;;;4.62;100.00;101657.72;5051824;28;20071;-84
2021/10/10 06:22:37;;;;;;;17.27;10.15;;;6.80;96.80;;;4.67;100.00;101659.09;5051781;28;20076;-84
2021/10/10 06:25:05;;;;;;;14.82;9.60;;;6.80;96.70;;;4.59;100.00;101657.94;5051746;28;20075;-84
2021/10/10 06:27:33;;;;;;;18.08;9.55;;;6.80;96.80;;;4.56;100.00;101661.75;5059346;28;20045;-84
2021/10/10 06:30:01;;;;;;;14.38;9.02;;;6.90;96.80;;;4.62;100.00;101663.13;5051636;28;20131;-84
2021/10/10 06:32:29;;;;;;;21.88;9.82;;;6.90;96.90;;;4.69;100.00;101657.13;5065972;28;20089;-84
2021/10/10 06:34:56;;;;;;;18.30;10.23;;;6.90;96.90;;;4.75;100.00;101655.78;5085848;28;20114;-84
2021/10/10 06:37:23;;;;;;;17.60;9.93;;;6.90;97.00;;;4.83;100.00;101660.59;5091610;28;20070;-83
2021/10/10 06:39:50;;;;;;;16.98;10.77;;;6.90;97.00;;;4.90;100.00;101661.84;5091303;28;20044;-83
2021/10/10 06:42:18;;;;;;;14.88;9.50;;;7.00;97.00;;;4.98;100.00;101654.00;5083784;28;20075;-83
2021/10/10 06:44:45;;;;;;;16.58;9.85;;;7.00;97.10;;;5.04;100.00;101658.91;5032891;28;20508;-83
2021/10/10 06:47:14;;;;;;;16.70;10.40;;;7.00;97.20;;;5.09;100.00;101656.72;5051200;28;20044;-82
2021/10/10 06:49:42;;;;;;;18.85;10.63;;;7.10;97.40;;;5.17;100.00;101664.22;5050571;28;20501;-82
2021/10/10 06:52:09;;;;;;;17.92;10.27;;;7.10;97.40;;;5.13;100.00;101661.88;5067106;28;20049;-82
2021/10/10 06:54:36;;;;;;;19.85;10.18;;;7.20;97.60;;;5.14;100.00;101658.19;5051827;28;20111;-82
2021/10/10 06:57:04;;;;;;;18.30;10.52;;;7.20;97.60;;;5.24;100.00;101660.06;5050131;28;20080;-82
2021/10/10 06:59:31;;;;;;;17.95;11.35;;;7.20;97.60;;;5.36;100.00;101652.81;5049847;28;20111;-80
2021/10/10 07:01:58;;;;;;;17.25;9.95;;;7.30;98.00;;;5.52;100.00;101657.84;5049903;28;20040;-82
2021/10/10 07:04:27;;;;;;;20.20;10.55;;;7.30;98.10;;;5.68;100.00;101652.91;5053331;28;20343;-82
2021/10/10 07:06:54;;;;;;;17.85;10.98;;;7.40;98.40;;;5.77;100.00;101651.31;5066046;28;20503;-84
2021/10/10 07:09:21;;;;;;;18.20;10.93;;;7.50;98.90;;;5.77;100.00;101650.44;5090225;28;20511;-82
2021/10/10 07:11:49;;;;;;;18.58;11.73;;;7.60;98.90;;;5.83;100.00;101642.72;5071431;28;20040;-83
2021/10/10 07:14:16;;;;;;;22.50;11.98;;;7.70;99.00;;;6.03;100.00;101640.22;5074638;28;20094;-82
2021/10/10 07:16:43;;;;;;;20.48;11.57;;;7.70;99.20;;;6.11;100.00;101653.97;5070556;28;20064;-82
2021/10/10 07:19:11;;;;;;;19.52;11.60;;;7.80;99.50;;;6.07;100.00;101645.28;5069759;28;20504;-82
2021/10/10 07:21:54;;;;;;;21.38;11.82;;;7.80;99.60;;;6.01;100.00;101648.44;5070341;28;20173;-84
2021/10/10 07:27:06;;;;;;;21.48;11.52;;;8.00;99.30;;;6.28;100.00;101643.59;5050430;28;20098;-81
2021/10/10 07:29:34;;;;;;;20.20;11.60;;;8.10;99.40;;;6.39;100.00;101651.66;5050061;28;20097;-83
2021/10/10 07:32:01;;;;;;;21.67;12.48;;;8.10;99.30;;;6.43;100.00;101653.09;5050927;28;20075;-83
2021/10/10 07:34:28;;;;;;;21.50;12.15;;;8.20;99.40;;;6.54;100.00;101650.34;5049946;28;20047;-83
2021/10/10 07:36:57;;;;;;;21.20;13.30;;;8.30;99.50;;;6.72;100.00;101652.47;5050321;28;20107;-83
2021/10/10 07:39:24;;;;;;;23.55;13.98;;;8.40;99.50;;;6.91;100.00;101649.94;5050004;28;20041;-83
2021/10/10 07:41:53;;;;;;;23.27;13.55;;;8.50;99.90;;;7.12;100.00;101658.03;5052019;28;20084;-83
2021/10/10 07:44:23;;;;;;;30.38;14.88;;;8.50;99.90;;;7.23;100.00;101657.94;5052065;28;20048;-83
2021/10/10 07:47:06;;;;;;;20.27;13.07;;;8.60;99.90;;;7.34;100.00;101654.28;5060880;28;20052;-83
2021/10/10 07:49:34;;;;;;;27.20;12.38;;;8.70;99.90;;;7.51;100.00;101641.94;5031930;28;20055;-82
2021/10/10 07:52:04;;;;;;;21.73;12.27;;;8.80;99.90;;;7.64;100.00;101649.84;5044880;28;20103;-83
2021/10/10 07:54:31;;;;;;;19.20;11.45;;;8.90;99.90;;;7.78;100.00;101652.16;5049977;28;20076;-83
2021/10/10 07:56:58;;;;;;;18.30;11.45;;;9.10;99.90;;;7.94;100.00;101646.22;5050010;28;20129;-83
2021/10/10 07:59:26;;;;;;;19.08;11.73;;;9.10;99.90;;;8.13;100.00;101656.25;5048251;28;20052;-83
2021/10/10 08:01:53;;;;;;;18.33;11.88;;;9.30;99.90;;;8.23;100.00;101654.38;5050346;28;20055;-83
2021/10/10 08:04:21;;;;;;;21.23;12.52;;;9.40;99.90;;;8.37;100.00;101655.81;5068099;28;20094;-83
2021/10/10 08:06:48;;;;;;;21.70;13.02;;;9.50;99.90;;;8.47;100.00;101663.97;5076588;28;20036;-83
2021/10/10 08:09:17;;;;;;;19.40;12.45;;;9.70;99.90;;;8.58;100.00;101655.69;5089465;28;20555;-83
2021/10/10 08:11:45;;;;;;;18.55;12.00;;;9.80;99.90;;;8.66;100.00;101662.28;5088088;28;20194;-83
2021/10/10 08:14:13;;;;;;;21.60;12.23;;;9.90;99.90;;;8.73;100.00;101658.00;5049921;28;20103;-83
2021/10/10 08:16:41;;;;;;;19.50;11.20;;;10.00;99.90;;;8.87;100.00;101657.56;5049644;28;20056;-83
2021/10/10 08:19:08;;;;;;;19.10;12.05;;;10.10;99.90;;;9.04;100.00;101668.66;5037509;28;20722;-83
2021/10/10 08:21:36;;;;;;;19.33;12.05;;;10.20;99.90;;;9.15;100.00;101676.63;5069125;28;20042;-83
2021/10/10 08:24:04;;;;;;;20.73;12.30;;;10.40;99.90;;;9.25;100.00;101673.88;5067353;28;20064;-83
2021/10/10 08:26:33;;;;;;;20.95;12.25;;;10.50;99.90;;;9.33;100.00;101672.16;5069150;28;20770;-83
2021/10/10 08:29:01;;;;;;;23.92;12.73;;;10.60;99.90;;;9.46;100.00;101670.97;5048940;28;20037;-83
2021/10/10 08:31:29;;;;;;;17.98;11.77;;;10.70;99.90;;;9.54;100.00;101668.38;5048883;28;20136;-83
2021/10/10 08:33:56;;;;;;;26.98;12.63;;;10.80;99.90;;;9.61;100.00;101668.63;5066569;28;20051;-83
2021/10/10 08:36:23;;;;;;;21.58;12.35;;;10.90;99.90;;;9.66;100.00;101667.16;5050694;28;20472;-83
2021/10/10 08:38:52;;;;;;;21.77;12.32;;;11.00;99.90;;;9.76;100.00;101659.81;5050145;28;20040;-83
2021/10/10 08:41:46;;;;;;;19.88;11.95;;;11.10;99.80;;;9.86;100.00;101656.19;5069746;28;20071;-83
2021/10/10 08:44:18;;;;;;;20.35;11.20;;;11.20;98.90;;;9.96;100.00;101651.56;5044025;28;20055;-83
2021/10/10 08:46:46;;;;;;;19.13;11.38;;;11.30;98.50;;;10.04;100.00;101642.63;5050894;28;20097;-83
2021/10/10 08:49:14;;;;;;;21.65;11.10;;;11.40;98.50;;;10.11;99.31;101644.59;5061241;28;20087;-83
2021/10/10 08:51:41;;;;;;;16.58;10.57;;;11.50;97.40;;;10.18;99.47;101644.81;5064279;28;20063;-83
2021/10/10 08:54:09;;;;;;;21.17;10.68;;;11.60;98.00;;;10.25;97.79;101639.63;5061435;28;20481;-83
2021/10/10 08:56:36;;;;;;;23.25;11.15;;;11.60;96.30;;;10.31;97.55;101639.03;5048866;28;20068;-83
2021/10/10 08:59:04;;;;;;;25.92;11.10;;;11.70;96.30;;;10.35;96.96;101640.41;5067332;28;20504;-83
2021/10/10 09:01:37;;;;;;;23.10;11.25;;;11.80;96.80;;;10.41;96.43;101634.34;5067019;28;20054;-83
2021/10/10 09:04:05;;;;;;;23.35;11.75;;;11.80;95.70;;;10.48;95.58;101619.09;5057947;28;20033;-83
2021/10/10 09:06:34;;;;;;;21.02;11.40;;;11.90;95.40;;;10.57;95.39;101612.72;5065626;28;20039;-83
2021/10/10 09:09:29;;;;;;;17.15;10.27;;;11.90;95.50;;;10.69;94.99;101615.19;5087915;28;20074;-83
2021/10/10 09:12:02;;;;;;;18.58;10.50;;;12.10;95.30;;;10.76;94.74;101610.84;5067353;28;20045;-83
2021/10/10 09:14:29;;;;;;;23.25;10.88;;;12.20;95.10;;;10.81;92.24;101616.63;5049702;28;20071;-83
2021/10/10 09:17:13;;;;;;;20.88;10.60;;;12.20;94.60;;;10.87;92.83;101624.19;5068448;28;20139;-83
2021/10/10 09:19:48;;;;;;;19.33;10.13;;;12.20;93.90;;;10.94;89.89;101629.84;5068290;28;20044;-83
2021/10/10 09:22:15;;;;;;;20.48;10.40;;;12.30;92.50;;;11.04;90.01;101627.88;5068203;28;20040;-83
2021/10/10 09:24:43;;;;;;;19.25;10.25;;;12.40;92.10;;;11.11;91.46;101615.31;5057238;28;20045;-83
2021/10/10 09:27:13;;;;;;;17.27;10.25;;;12.50;93.00;;;11.18;91.67;101606.50;5065737;28;20123;-83
2021/10/10 09:29:42;;;;;;;17.80;10.30;;;12.50;93.00;;;11.23;91.02;101618.63;5030264;28;20140;-83
2021/10/10 09:32:14;;;;;;;19.52;9.60;;;12.60;92.70;;;11.28;90.38;101627.16;5048208;28;20071;-83
2021/10/10 09:34:42;;;;;;;23.92;9.73;;;12.70;92.10;;;11.40;91.14;101635.06;5052698;28;20040;-83
2021/10/10 09:37:16;;;;;;;17.55;10.52;;;12.70;92.40;;;11.45;90.00;101638.16;5057158;28;20040;-83
2021/10/10 09:39:46;;;;;;;17.90;10.23;;;12.80;92.20;;;11.55;90.63;101641.59;5072092;28;20045;-83
2021/10/10 09:42:36;;;;;;;18.92;10.02;;;12.90;92.40;;;11.66;90.83;101635.84;5071944;28;20143;-83
2021/10/10 09:45:19;;;;;;;15.10;9.00;;;13.00;92.30;;;11.74;87.96;101643.22;5059252;28;20465;-85
2021/10/10 09:47:55;;;;;;;17.92;9.68;;;13.10;90.70;;;11.80;87.57;101637.09;5047388;28;20041;-84
2021/10/10 09:50:26;;;;;;;15.20;9.27;;;13.10;90.30;;;11.83;87.66;101633.22;5057757;28;20052;-82
2021/10/10 09:53:02;;;;;;;14.50;9.02;;;13.20;90.00;;;11.90;86.80;101639.75;5057819;28;20475;-82
2021/10/10 09:55:53;;;;;;;17.48;9.20;;;13.20;89.60;;;11.99;88.35;101630.53;5061440;28;20522;-82
2021/10/10 09:58:35;;;;;;;16.33;8.88;;;13.30;90.80;;;12.10;88.43;101630.22;5047257;28;20458;-82
2021/10/10 10:01:14;;;;;;;17.67;8.75;;;13.40;90.80;;;12.11;87.63;101625.66;5048372;28;20048;-82
2021/10/10 10:04:04;;;;;;;13.80;8.50;;;13.40;90.00;;;12.13;85.92;101623.59;5067052;28;20119;-82
2021/10/10 10:06:37;;;;;;;17.50;8.63;;;13.40;88.40;;;12.24;84.92;101627.88;5048206;28;20055;-83
2021/10/10 10:09:10;;;;;;;17.20;9.38;;;13.50;88.50;;;12.27;86.02;101624.81;5057817;28;20509;-82
2021/10/10 10:11:41;;;;;;;16.83;8.82;;;13.60;89.30;;;12.32;86.81;101636.09;5071025;28;20613;-82
2021/10/10 10:14:12;;;;;;;17.10;9.10;;;13.70;89.60;;;12.31;87.01;101631.63;5071199;28;20492;-82
2021/10/10 10:16:43;;;;;;;;;;;13.70;89.80;;;12.31;86.50;101637.09;5072060;28;20056;-82
2021/10/10 10:19:15;;;;;;;14.70;8.70;;;13.80;89.40;;;12.33;84.82;101626.84;5070909;28;19935;-83